sensor_id;sensor_type;location;lat;lon;timestamp;temperature;humidity
2463;DHT22;1243;54.298;10.172;2023-07-13T00:01:48;15.80;1.00
2463;DHT22;1243;54.298;10.172;2023-07-13T00:04:19;15.80;1.00
2463;DHT22;1243;54.298;10.172;2023-07-13T00:06:46;15.80;1.00
2463;DHT22;1243;54.298;10.172;2023-07-13T00:09:16;15.70;1.00
2463;DHT22;1243;54.298;10.172;2023-07-13T00:11:43;15.70;1.00
2463;DHT22;1243;54.298;10.172;2023-07-13T00:14:10;15.70;1.00
2463;DHT22;1243;54.298;10.172;2023-07-13T00:16:38;15.60;1.00
2463;DHT22;1243;54.298;10.172;2023-07-13T00:19:04;15.60;1.00
2463;DHT22;1243;54.298;10.172;2023-07-13T00:21:30;15.60;1.00
2463;DHT22;1243;54.298;10.172;2023-07-13T00:23:56;15.50;1.00
2463;DHT22;1243;54.298;10.172;2023-07-13T00:26:22;15.50;1.00
2463;DHT22;1243;54.298;10.172;2023-07-13T00:28:47;15.40;1.00
2463;DHT22;1243;54.298;10.172;2023-07-13T00:31:14;15.50;1.00
2463;DHT22;1243;54.298;10.172;2023-07-13T00:33:43;15.40;1.00
2463;DHT22;1243;54.298;10.172;2023-07-13T00:36:09;15.40;1.00
2463;DHT22;1243;54.298;10.172;2023-07-13T00:38:36;15.40;1.00
2463;DHT22;1243;54.298;10.172;2023-07-13T00:41:03;15.40;1.00
2463;DHT22;1243;54.298;10.172;2023-07-13T00:43:29;15.40;1.00
2463;DHT22;1243;54.298;10.172;2023-07-13T00:48:25;15.50;1.00
2463;DHT22;1243;54.298;10.172;2023-07-13T00:50:54;15.50;1.00
2463;DHT22;1243;54.298;10.172;2023-07-13T00:53:20;15.50;1.00
2463;DHT22;1243;54.298;10.172;2023-07-13T00:55:48;15.60;1.00
2463;DHT22;1243;54.298;10.172;2023-07-13T00:58:15;15.60;1.00
2463;DHT22;1243;54.298;10.172;2023-07-13T01:00:41;15.60;1.00
2463;DHT22;1243;54.298;10.172;2023-07-13T01:03:07;15.60;1.00
2463;DHT22;1243;54.298;10.172;2023-07-13T01:05:34;15.60;1.00
2463;DHT22;1243;54.298;10.172;2023-07-13T01:08:01;15.60;1.00
2463;DHT22;1243;54.298;10.172;2023-07-13T01:10:27;15.70;1.00
2463;DHT22;1243;54.298;10.172;2023-07-13T01:12:54;15.60;1.00
2463;DHT22;1243;54.298;10.172;2023-07-13T01:15:45;15.70;1.00
2463;DHT22;1243;54.298;10.172;2023-07-13T01:18:14;15.60;1.00
2463;DHT22;1243;54.298;10.172;2023-07-13T01:20:41;15.60;1.00
2463;DHT22;1243;54.298;10.172;2023-07-13T01:23:10;15.60;1.00
2463;DHT22;1243;54.298;10.172;2023-07-13T01:25:38;15.50;1.00
2463;DHT22;1243;54.298;10.172;2023-07-13T01:28:08;15.50;1.00
2463;DHT22;1243;54.298;10.172;2023-07-13T01:30:35;15.40;1.00
2463;DHT22;1243;54.298;10.172;2023-07-13T01:33:01;15.40;1.00
2463;DHT22;1243;54.298;10.172;2023-07-13T01:35:27;15.40;1.00
2463;DHT22;1243;54.298;10.172;2023-07-13T01:37:53;15.40;1.00
2463;DHT22;1243;54.298;10.172;2023-07-13T01:40:20;15.40;1.00
2463;DHT22;1243;54.298;10.172;2023-07-13T01:42:46;15.30;1.00
2463;DHT22;1243;54.298;10.172;2023-07-13T01:45:11;15.30;1.00
2463;DHT22;1243;54.298;10.172;2023-07-13T01:47:37;15.30;1.00
2463;DHT22;1243;54.298;10.172;2023-07-13T01:50:03;15.20;1.00
2463;DHT22;1243;54.298;10.172;2023-07-13T01:52:29;15.30;1.00
2463;DHT22;1243;54.298;10.172;2023-07-13T01:54:54;15.30;1.00
2463;DHT22;1243;54.298;10.172;2023-07-13T01:57:20;15.30;1.00
2463;DHT22;1243;54.298;10.172;2023-07-13T01:59:46;15.30;1.00
2463;DHT22;1243;54.298;10.172;2023-07-13T02:02:11;15.30;1.00
2463;DHT22;1243;54.298;10.172;2023-07-13T02:04:37;15.30;1.00
2463;DHT22;1243;54.298;10.172;2023-07-13T02:07:03;15.30;1.00
2463;DHT22;1243;54.298;10.172;2023-07-13T02:09:29;15.30;1.00
2463;DHT22;1243;54.298;10.172;2023-07-13T02:11:54;15.30;1.00
2463;DHT22;1243;54.298;10.172;2023-07-13T02:14:20;15.30;1.00
2463;DHT22;1243;54.298;10.172;2023-07-13T02:16:46;15.30;1.00
2463;DHT22;1243;54.298;10.172;2023-07-13T02:19:13;15.30;1.00
2463;DHT22;1243;54.298;10.172;2023-07-13T02:21:39;15.30;1.00
2463;DHT22;1243;54.298;10.172;2023-07-13T02:24:05;15.30;1.00
2463;DHT22;1243;54.298;10.172;2023-07-13T02:26:31;15.30;1.00
2463;DHT22;1243;54.298;10.172;2023-07-13T02:28:56;15.20;1.00
2463;DHT22;1243;54.298;10.172;2023-07-13T02:31:22;15.20;1.00
2463;DHT22;1243;54.298;10.172;2023-07-13T02:33:48;15.20;1.00
2463;DHT22;1243;54.298;10.172;2023-07-13T02:36:13;15.20;1.00
2463;DHT22;1243;54.298;10.172;2023-07-13T02:38:41;15.20;1.00
2463;DHT22;1243;54.298;10.172;2023-07-13T02:41:08;15.10;1.00
2463;DHT22;1243;54.298;10.172;2023-07-13T02:43:34;15.10;1.00
2463;DHT22;1243;54.298;10.172;2023-07-13T02:46:01;15.10;1.00
2463;DHT22;1243;54.298;10.172;2023-07-13T02:48:35;15.10;1.00
2463;DHT22;1243;54.298;10.172;2023-07-13T02:51:01;15.10;1.00
2463;DHT22;1243;54.298;10.172;2023-07-13T02:53:27;15.00;1.00
2463;DHT22;1243;54.298;10.172;2023-07-13T02:55:53;15.00;1.00
2463;DHT22;1243;54.298;10.172;2023-07-13T02:58:19;15.00;1.00
2463;DHT22;1243;54.298;10.172;2023-07-13T03:00:46;15.00;1.00
2463;DHT22;1243;54.298;10.172;2023-07-13T03:03:13;15.00;1.00
2463;DHT22;1243;54.298;10.172;2023-07-13T03:05:41;15.00;1.00
2463;DHT22;1243;54.298;10.172;2023-07-13T03:08:08;15.00;1.00
2463;DHT22;1243;54.298;10.172;2023-07-13T03:10:34;15.00;1.00
2463;DHT22;1243;54.298;10.172;2023-07-13T03:12:59;15.00;1.00
2463;DHT22;1243;54.298;10.172;2023-07-13T03:15:25;15.00;1.00
2463;DHT22;1243;54.298;10.172;2023-07-13T03:17:52;15.00;1.00
2463;DHT22;1243;54.298;10.172;2023-07-13T03:20:18;15.00;1.00
2463;DHT22;1243;54.298;10.172;2023-07-13T03:22:44;15.00;1.00
2463;DHT22;1243;54.298;10.172;2023-07-13T03:25:09;15.10;1.00
2463;DHT22;1243;54.298;10.172;2023-07-13T03:27:36;15.10;1.00
2463;DHT22;1243;54.298;10.172;2023-07-13T03:30:06;15.10;1.00
2463;DHT22;1243;54.298;10.172;2023-07-13T03:32:32;15.10;1.00
2463;DHT22;1243;54.298;10.172;2023-07-13T03:34:58;15.20;1.00
2463;DHT22;1243;54.298;10.172;2023-07-13T03:37:24;15.20;1.00
2463;DHT22;1243;54.298;10.172;2023-07-13T03:39:49;15.10;1.00
2463;DHT22;1243;54.298;10.172;2023-07-13T03:42:15;15.10;1.50
2463;DHT22;1243;54.298;10.172;2023-07-13T03:44:42;15.20;10.30
2463;DHT22;1243;54.298;10.172;2023-07-13T03:47:07;15.20;18.00
2463;DHT22;1243;54.298;10.172;2023-07-13T03:49:34;15.20;25.10
2463;DHT22;1243;54.298;10.172;2023-07-13T03:52:00;15.20;30.00
2463;DHT22;1243;54.298;10.172;2023-07-13T03:54:26;15.20;39.70
2463;DHT22;1243;54.298;10.172;2023-07-13T03:56:52;15.20;51.20
2463;DHT22;1243;54.298;10.172;2023-07-13T03:59:18;15.30;62.50
2463;DHT22;1243;54.298;10.172;2023-07-13T04:01:44;15.30;73.10
2463;DHT22;1243;54.298;10.172;2023-07-13T04:04:10;15.30;87.60
2463;DHT22;1243;54.298;10.172;2023-07-13T04:06:37;15.30;95.10
2463;DHT22;1243;54.298;10.172;2023-07-13T04:09:03;15.30;94.00
2463;DHT22;1243;54.298;10.172;2023-07-13T04:11:32;15.40;94.10
2463;DHT22;1243;54.298;10.172;2023-07-13T04:13:59;15.40;94.10
2463;DHT22;1243;54.298;10.172;2023-07-13T04:16:25;15.40;94.30
2463;DHT22;1243;54.298;10.172;2023-07-13T04:18:51;15.40;94.00
2463;DHT22;1243;54.298;10.172;2023-07-13T04:21:20;15.50;99.80
2463;DHT22;1243;54.298;10.172;2023-07-13T04:23:46;15.50;98.50
2463;DHT22;1243;54.298;10.172;2023-07-13T04:26:12;15.50;99.90
2463;DHT22;1243;54.298;10.172;2023-07-13T04:28:38;15.50;99.90
2463;DHT22;1243;54.298;10.172;2023-07-13T04:31:04;15.60;99.90
2463;DHT22;1243;54.298;10.172;2023-07-13T04:33:30;15.70;99.90
2463;DHT22;1243;54.298;10.172;2023-07-13T04:35:56;15.70;99.90
2463;DHT22;1243;54.298;10.172;2023-07-13T04:38:24;15.70;98.30
2463;DHT22;1243;54.298;10.172;2023-07-13T04:40:51;15.70;94.20
2463;DHT22;1243;54.298;10.172;2023-07-13T04:43:17;15.80;94.20
2463;DHT22;1243;54.298;10.172;2023-07-13T04:45:43;15.80;94.20
2463;DHT22;1243;54.298;10.172;2023-07-13T04:48:08;15.80;94.20
2463;DHT22;1243;54.298;10.172;2023-07-13T04:50:36;15.80;94.20
2463;DHT22;1243;54.298;10.172;2023-07-13T04:53:02;15.80;94.10
2463;DHT22;1243;54.298;10.172;2023-07-13T04:55:29;15.90;94.00
2463;DHT22;1243;54.298;10.172;2023-07-13T04:57:57;15.90;84.70
2463;DHT22;1243;54.298;10.172;2023-07-13T05:00:24;16.00;84.10
2463;DHT22;1243;54.298;10.172;2023-07-13T05:02:51;16.10;82.10
2463;DHT22;1243;54.298;10.172;2023-07-13T05:05:17;16.20;68.10
2463;DHT22;1243;54.298;10.172;2023-07-13T05:07:42;16.20;47.50
2463;DHT22;1243;54.298;10.172;2023-07-13T05:10:09;16.40;47.40
2463;DHT22;1243;54.298;10.172;2023-07-13T05:12:34;16.50;32.00
2463;DHT22;1243;54.298;10.172;2023-07-13T05:15:01;16.60;3.80
2463;DHT22;1243;54.298;10.172;2023-07-13T05:17:26;16.60;1.00
2463;DHT22;1243;54.298;10.172;2023-07-13T05:19:52;16.60;1.00
2463;DHT22;1243;54.298;10.172;2023-07-13T05:22:18;16.80;1.00
2463;DHT22;1243;54.298;10.172;2023-07-13T05:24:43;16.80;1.00
2463;DHT22;1243;54.298;10.172;2023-07-13T05:27:09;16.80;1.00
2463;DHT22;1243;54.298;10.172;2023-07-13T05:29:35;17.00;1.00
2463;DHT22;1243;54.298;10.172;2023-07-13T05:32:00;17.00;1.00
2463;DHT22;1243;54.298;10.172;2023-07-13T05:34:26;17.10;1.00
2463;DHT22;1243;54.298;10.172;2023-07-13T05:36:52;17.20;1.00
2463;DHT22;1243;54.298;10.172;2023-07-13T05:39:18;17.20;1.00
2463;DHT22;1243;54.298;10.172;2023-07-13T05:41:44;17.10;1.00
2463;DHT22;1243;54.298;10.172;2023-07-13T05:44:10;17.20;1.00
2463;DHT22;1243;54.298;10.172;2023-07-13T05:46:36;17.10;1.00
2463;DHT22;1243;54.298;10.172;2023-07-13T05:49:01;17.20;1.00
2463;DHT22;1243;54.298;10.172;2023-07-13T05:51:28;17.10;1.00
2463;DHT22;1243;54.298;10.172;2023-07-13T05:53:54;17.20;1.00
2463;DHT22;1243;54.298;10.172;2023-07-13T05:56:20;17.20;1.00
2463;DHT22;1243;54.298;10.172;2023-07-13T05:58:47;17.20;1.00
2463;DHT22;1243;54.298;10.172;2023-07-13T06:01:14;17.30;1.00
2463;DHT22;1243;54.298;10.172;2023-07-13T06:03:40;17.30;1.00
2463;DHT22;1243;54.298;10.172;2023-07-13T06:06:06;17.20;1.00
2463;DHT22;1243;54.298;10.172;2023-07-13T06:08:33;17.20;1.00
2463;DHT22;1243;54.298;10.172;2023-07-13T06:11:07;17.20;1.00
2463;DHT22;1243;54.298;10.172;2023-07-13T06:13:33;17.20;1.00
2463;DHT22;1243;54.298;10.172;2023-07-13T06:15:59;17.20;1.00
2463;DHT22;1243;54.298;10.172;2023-07-13T06:18:25;17.30;1.00
2463;DHT22;1243;54.298;10.172;2023-07-13T06:20:51;17.40;1.00
2463;DHT22;1243;54.298;10.172;2023-07-13T06:23:17;17.40;1.00
2463;DHT22;1243;54.298;10.172;2023-07-13T06:25:43;17.40;1.00
2463;DHT22;1243;54.298;10.172;2023-07-13T06:28:09;17.40;1.00
2463;DHT22;1243;54.298;10.172;2023-07-13T06:30:34;17.40;1.00
2463;DHT22;1243;54.298;10.172;2023-07-13T06:33:00;17.40;1.00
2463;DHT22;1243;54.298;10.172;2023-07-13T06:35:25;17.30;1.00
2463;DHT22;1243;54.298;10.172;2023-07-13T06:37:51;17.40;1.00
2463;DHT22;1243;54.298;10.172;2023-07-13T06:40:17;17.40;1.00
2463;DHT22;1243;54.298;10.172;2023-07-13T06:42:43;17.40;1.00
2463;DHT22;1243;54.298;10.172;2023-07-13T06:45:09;17.40;1.00
2463;DHT22;1243;54.298;10.172;2023-07-13T06:47:34;17.40;1.00
2463;DHT22;1243;54.298;10.172;2023-07-13T06:50:00;17.40;1.00
2463;DHT22;1243;54.298;10.172;2023-07-13T06:52:26;17.40;1.00
2463;DHT22;1243;54.298;10.172;2023-07-13T06:54:52;17.40;1.00
2463;DHT22;1243;54.298;10.172;2023-07-13T06:57:18;17.40;1.00
2463;DHT22;1243;54.298;10.172;2023-07-13T06:59:43;17.40;1.00
2463;DHT22;1243;54.298;10.172;2023-07-13T07:02:10;17.50;1.00
2463;DHT22;1243;54.298;10.172;2023-07-13T07:04:37;17.60;1.00
2463;DHT22;1243;54.298;10.172;2023-07-13T07:07:02;17.80;1.00
2463;DHT22;1243;54.298;10.172;2023-07-13T07:09:28;17.80;1.00
2463;DHT22;1243;54.298;10.172;2023-07-13T07:11:56;17.90;1.00
2463;DHT22;1243;54.298;10.172;2023-07-13T07:14:22;18.00;1.00
2463;DHT22;1243;54.298;10.172;2023-07-13T07:16:49;18.10;1.00
2463;DHT22;1243;54.298;10.172;2023-07-13T07:19:16;18.10;1.00
2463;DHT22;1243;54.298;10.172;2023-07-13T07:21:41;18.20;1.00
2463;DHT22;1243;54.298;10.172;2023-07-13T07:24:07;18.40;1.00
2463;DHT22;1243;54.298;10.172;2023-07-13T07:26:33;18.40;1.00
2463;DHT22;1243;54.298;10.172;2023-07-13T07:28:59;18.50;1.00
2463;DHT22;1243;54.298;10.172;2023-07-13T07:31:25;18.50;1.00
2463;DHT22;1243;54.298;10.172;2023-07-13T07:33:50;18.60;1.00
2463;DHT22;1243;54.298;10.172;2023-07-13T07:36:16;18.60;1.00
2463;DHT22;1243;54.298;10.172;2023-07-13T07:38:43;18.80;1.00
2463;DHT22;1243;54.298;10.172;2023-07-13T07:41:09;19.00;1.00
2463;DHT22;1243;54.298;10.172;2023-07-13T07:43:35;19.10;1.00
2463;DHT22;1243;54.298;10.172;2023-07-13T07:46:01;19.20;1.00
2463;DHT22;1243;54.298;10.172;2023-07-13T07:48:27;19.20;1.00
2463;DHT22;1243;54.298;10.172;2023-07-13T07:50:53;19.10;1.00
2463;DHT22;1243;54.298;10.172;2023-07-13T07:53:19;19.30;1.00
2463;DHT22;1243;54.298;10.172;2023-07-13T07:55:44;19.40;1.00
2463;DHT22;1243;54.298;10.172;2023-07-13T07:58:10;19.50;1.00
2463;DHT22;1243;54.298;10.172;2023-07-13T08:00:36;19.50;1.00
2463;DHT22;1243;54.298;10.172;2023-07-13T08:03:02;19.40;1.00
2463;DHT22;1243;54.298;10.172;2023-07-13T08:05:28;19.30;1.00
2463;DHT22;1243;54.298;10.172;2023-07-13T08:07:55;19.40;1.00
2463;DHT22;1243;54.298;10.172;2023-07-13T08:10:21;19.50;1.00
2463;DHT22;1243;54.298;10.172;2023-07-13T08:12:46;19.40;1.00
2463;DHT22;1243;54.298;10.172;2023-07-13T08:15:14;19.30;1.00
2463;DHT22;1243;54.298;10.172;2023-07-13T08:17:41;19.40;1.00
2463;DHT22;1243;54.298;10.172;2023-07-13T08:20:07;19.60;1.00
2463;DHT22;1243;54.298;10.172;2023-07-13T08:22:34;19.80;1.00
2463;DHT22;1243;54.298;10.172;2023-07-13T08:25:01;19.90;1.00
2463;DHT22;1243;54.298;10.172;2023-07-13T08:27:28;20.10;1.00
2463;DHT22;1243;54.298;10.172;2023-07-13T08:29:54;20.20;99.90
2463;DHT22;1243;54.298;10.172;2023-07-13T08:32:21;20.30;99.90
2463;DHT22;1243;54.298;10.172;2023-07-13T08:34:47;20.30;99.90
2463;DHT22;1243;54.298;10.172;2023-07-13T08:37:14;20.50;99.90
2463;DHT22;1243;54.298;10.172;2023-07-13T08:39:40;20.60;99.90
2463;DHT22;1243;54.298;10.172;2023-07-13T08:42:16;20.60;99.90
2463;DHT22;1243;54.298;10.172;2023-07-13T08:45:00;20.60;99.90
2463;DHT22;1243;54.298;10.172;2023-07-13T08:47:28;20.70;99.90
2463;DHT22;1243;54.298;10.172;2023-07-13T08:49:55;20.70;99.90
2463;DHT22;1243;54.298;10.172;2023-07-13T08:52:32;20.90;99.90
2463;DHT22;1243;54.298;10.172;2023-07-13T08:55:24;21.10;99.90
2463;DHT22;1243;54.298;10.172;2023-07-13T09:01:15;21.10;99.90
2463;DHT22;1243;54.298;10.172;2023-07-13T09:17:20;18.70;1.00
2463;DHT22;1243;54.298;10.172;2023-07-13T09:19:56;18.50;1.00
2463;DHT22;1243;54.298;10.172;2023-07-13T09:22:24;18.20;1.00
2463;DHT22;1243;54.298;10.172;2023-07-13T09:24:55;18.10;1.00
2463;DHT22;1243;54.298;10.172;2023-07-13T09:27:27;18.10;1.00
2463;DHT22;1243;54.298;10.172;2023-07-13T09:32:49;18.20;1.00
2463;DHT22;1243;54.298;10.172;2023-07-13T09:35:19;18.20;1.00
2463;DHT22;1243;54.298;10.172;2023-07-13T09:37:46;18.20;1.00
2463;DHT22;1243;54.298;10.172;2023-07-13T09:40:23;18.20;1.00
2463;DHT22;1243;54.298;10.172;2023-07-13T09:42:53;18.50;1.00
2463;DHT22;1243;54.298;10.172;2023-07-13T09:45:30;18.70;1.00
2463;DHT22;1243;54.298;10.172;2023-07-13T09:48:16;19.00;1.00
2463;DHT22;1243;54.298;10.172;2023-07-13T09:50:42;19.40;1.00
2463;DHT22;1243;54.298;10.172;2023-07-13T09:53:16;19.80;1.00
2463;DHT22;1243;54.298;10.172;2023-07-13T09:55:44;20.30;1.00
2463;DHT22;1243;54.298;10.172;2023-07-13T09:58:15;20.90;1.00
2463;DHT22;1243;54.298;10.172;2023-07-13T10:00:43;21.30;1.00
2463;DHT22;1243;54.298;10.172;2023-07-13T10:03:20;21.30;1.00
2463;DHT22;1243;54.298;10.172;2023-07-13T10:05:49;21.70;1.00
2463;DHT22;1243;54.298;10.172;2023-07-13T10:08:23;21.70;1.00
2463;DHT22;1243;54.298;10.172;2023-07-13T10:10:57;21.30;1.00
2463;DHT22;1243;54.298;10.172;2023-07-13T10:13:26;21.00;1.00
2463;DHT22;1243;54.298;10.172;2023-07-13T10:15:53;20.50;1.00
2463;DHT22;1243;54.298;10.172;2023-07-13T10:18:20;20.00;1.00
2463;DHT22;1243;54.298;10.172;2023-07-13T10:20:46;19.30;1.00
2463;DHT22;1243;54.298;10.172;2023-07-13T10:23:18;19.00;1.00
2463;DHT22;1243;54.298;10.172;2023-07-13T10:25:47;18.70;1.00
2463;DHT22;1243;54.298;10.172;2023-07-13T10:28:36;18.50;1.00
2463;DHT22;1243;54.298;10.172;2023-07-13T10:31:05;18.40;1.00
2463;DHT22;1243;54.298;10.172;2023-07-13T10:33:35;18.30;1.00
2463;DHT22;1243;54.298;10.172;2023-07-13T10:38:38;19.10;1.00
2463;DHT22;1243;54.298;10.172;2023-07-13T10:41:07;20.00;1.00
2463;DHT22;1243;54.298;10.172;2023-07-13T10:43:43;20.80;1.00
2463;DHT22;1243;54.298;10.172;2023-07-13T10:46:30;21.60;99.90
2463;DHT22;1243;54.298;10.172;2023-07-13T10:49:04;22.20;99.90
2463;DHT22;1243;54.298;10.172;2023-07-13T10:51:32;22.40;99.90
2463;DHT22;1243;54.298;10.172;2023-07-13T10:54:20;22.60;99.90
2463;DHT22;1243;54.298;10.172;2023-07-13T10:56:52;23.00;99.90
2463;DHT22;1243;54.298;10.172;2023-07-13T10:59:24;23.50;99.90
2463;DHT22;1243;54.298;10.172;2023-07-13T11:01:56;23.90;99.90
2463;DHT22;1243;54.298;10.172;2023-07-13T11:04:22;24.20;99.90
2463;DHT22;1243;54.298;10.172;2023-07-13T11:07:09;24.10;99.90
2463;DHT22;1243;54.298;10.172;2023-07-13T11:09:40;24.10;99.90
2463;DHT22;1243;54.298;10.172;2023-07-13T11:12:27;24.00;99.90
2463;DHT22;1243;54.298;10.172;2023-07-13T11:20:31;24.70;99.90
2463;DHT22;1243;54.298;10.172;2023-07-13T11:25:39;25.20;99.90
2463;DHT22;1243;54.298;10.172;2023-07-13T11:30:39;25.30;99.90
2463;DHT22;1243;54.298;10.172;2023-07-13T11:38:38;25.40;99.90
2463;DHT22;1243;54.298;10.172;2023-07-13T11:41:16;25.40;99.90
2463;DHT22;1243;54.298;10.172;2023-07-13T11:43:43;25.10;99.90
2463;DHT22;1243;54.298;10.172;2023-07-13T11:46:19;25.30;99.90
2463;DHT22;1243;54.298;10.172;2023-07-13T11:48:46;25.70;99.90
2463;DHT22;1243;54.298;10.172;2023-07-13T11:51:27;26.30;99.90
2463;DHT22;1243;54.298;10.172;2023-07-13T11:53:55;26.60;99.90
2463;DHT22;1243;54.298;10.172;2023-07-13T11:56:23;26.70;99.90
2463;DHT22;1243;54.298;10.172;2023-07-13T11:58:54;27.00;99.90
2463;DHT22;1243;54.298;10.172;2023-07-13T12:01:23;26.40;99.90
2463;DHT22;1243;54.298;10.172;2023-07-13T12:03:50;25.20;99.90
2463;DHT22;1243;54.298;10.172;2023-07-13T12:06:35;24.20;99.90
2463;DHT22;1243;54.298;10.172;2023-07-13T12:09:14;23.40;99.90
2463;DHT22;1243;54.298;10.172;2023-07-13T12:11:43;23.50;99.90
2463;DHT22;1243;54.298;10.172;2023-07-13T12:14:17;23.50;99.90
2463;DHT22;1243;54.298;10.172;2023-07-13T12:16:44;23.20;99.90
2463;DHT22;1243;54.298;10.172;2023-07-13T12:19:28;22.70;99.90
2463;DHT22;1243;54.298;10.172;2023-07-13T12:21:57;22.40;99.90
2463;DHT22;1243;54.298;10.172;2023-07-13T12:24:24;22.70;99.90
2463;DHT22;1243;54.298;10.172;2023-07-13T12:26:59;22.70;99.90
2463;DHT22;1243;54.298;10.172;2023-07-13T12:29:26;22.40;99.90
2463;DHT22;1243;54.298;10.172;2023-07-13T12:31:52;22.60;99.90
2463;DHT22;1243;54.298;10.172;2023-07-13T12:34:22;23.40;99.90
2463;DHT22;1243;54.298;10.172;2023-07-13T12:42:16;25.20;99.90
2463;DHT22;1243;54.298;10.172;2023-07-13T12:44:43;25.40;99.90
2463;DHT22;1243;54.298;10.172;2023-07-13T12:47:13;25.20;99.90
2463;DHT22;1243;54.298;10.172;2023-07-13T12:49:47;24.80;99.90
2463;DHT22;1243;54.298;10.172;2023-07-13T12:52:17;25.00;99.90
2463;DHT22;1243;54.298;10.172;2023-07-13T12:54:54;24.70;99.90
2463;DHT22;1243;54.298;10.172;2023-07-13T12:57:22;24.30;99.90
2463;DHT22;1243;54.298;10.172;2023-07-13T12:59:55;23.90;99.90
2463;DHT22;1243;54.298;10.172;2023-07-13T13:02:32;23.40;99.90
2463;DHT22;1243;54.298;10.172;2023-07-13T13:05:00;23.60;99.90
2463;DHT22;1243;54.298;10.172;2023-07-13T13:07:26;23.40;99.90
2463;DHT22;1243;54.298;10.172;2023-07-13T13:09:52;23.00;99.90
2463;DHT22;1243;54.298;10.172;2023-07-13T13:12:22;22.70;99.90
2463;DHT22;1243;54.298;10.172;2023-07-13T13:14:51;22.50;99.90
2463;DHT22;1243;54.298;10.172;2023-07-13T13:17:24;22.40;99.90
2463;DHT22;1243;54.298;10.172;2023-07-13T13:19:52;22.30;99.90
2463;DHT22;1243;54.298;10.172;2023-07-13T13:22:20;21.90;99.90
2463;DHT22;1243;54.298;10.172;2023-07-13T13:24:46;21.90;99.90
2463;DHT22;1243;54.298;10.172;2023-07-13T13:27:21;21.70;99.90
2463;DHT22;1243;54.298;10.172;2023-07-13T13:29:49;21.80;99.90
2463;DHT22;1243;54.298;10.172;2023-07-13T13:32:17;21.90;99.90
2463;DHT22;1243;54.298;10.172;2023-07-13T13:34:44;22.00;99.90
2463;DHT22;1243;54.298;10.172;2023-07-13T13:37:20;22.00;99.90
2463;DHT22;1243;54.298;10.172;2023-07-13T13:39:47;21.90;99.90
2463;DHT22;1243;54.298;10.172;2023-07-13T13:42:13;22.00;99.90
2463;DHT22;1243;54.298;10.172;2023-07-13T13:44:39;21.90;99.90
2463;DHT22;1243;54.298;10.172;2023-07-13T13:47:27;21.80;99.90
2463;DHT22;1243;54.298;10.172;2023-07-13T13:49:54;21.80;99.90
2463;DHT22;1243;54.298;10.172;2023-07-13T13:52:20;21.70;99.90
2463;DHT22;1243;54.298;10.172;2023-07-13T13:54:46;21.60;99.90
2463;DHT22;1243;54.298;10.172;2023-07-13T13:57:11;21.60;99.90
2463;DHT22;1243;54.298;10.172;2023-07-13T13:59:38;21.70;99.90
2463;DHT22;1243;54.298;10.172;2023-07-13T14:02:22;21.70;99.90
2463;DHT22;1243;54.298;10.172;2023-07-13T14:04:52;21.70;99.90
2463;DHT22;1243;54.298;10.172;2023-07-13T14:07:19;21.70;99.90
2463;DHT22;1243;54.298;10.172;2023-07-13T14:09:45;21.50;99.90
2463;DHT22;1243;54.298;10.172;2023-07-13T14:12:10;21.20;99.90
2463;DHT22;1243;54.298;10.172;2023-07-13T14:14:37;21.10;99.90
2463;DHT22;1243;54.298;10.172;2023-07-13T14:17:04;20.90;99.90
2463;DHT22;1243;54.298;10.172;2023-07-13T14:19:30;20.70;99.90
2463;DHT22;1243;54.298;10.172;2023-07-13T14:21:55;20.60;99.90
2463;DHT22;1243;54.298;10.172;2023-07-13T14:24:21;20.70;99.90
2463;DHT22;1243;54.298;10.172;2023-07-13T14:26:47;21.00;99.90
2463;DHT22;1243;54.298;10.172;2023-07-13T14:29:15;21.40;99.90
2463;DHT22;1243;54.298;10.172;2023-07-13T14:31:43;21.60;99.90
2463;DHT22;1243;54.298;10.172;2023-07-13T14:34:12;21.60;99.90
2463;DHT22;1243;54.298;10.172;2023-07-13T14:36:44;21.30;99.90
2463;DHT22;1243;54.298;10.172;2023-07-13T14:39:19;21.30;99.90
2463;DHT22;1243;54.298;10.172;2023-07-13T14:41:45;21.30;99.90
2463;DHT22;1243;54.298;10.172;2023-07-13T14:44:16;21.40;99.90
2463;DHT22;1243;54.298;10.172;2023-07-13T14:46:44;21.50;99.90
2463;DHT22;1243;54.298;10.172;2023-07-13T14:51:38;21.70;99.90
2463;DHT22;1243;54.298;10.172;2023-07-13T14:54:05;21.70;99.90
2463;DHT22;1243;54.298;10.172;2023-07-13T14:56:33;21.80;99.90
2463;DHT22;1243;54.298;10.172;2023-07-13T14:58:58;21.90;99.90
2463;DHT22;1243;54.298;10.172;2023-07-13T15:01:24;21.90;99.90
2463;DHT22;1243;54.298;10.172;2023-07-13T15:03:52;21.80;99.90
2463;DHT22;1243;54.298;10.172;2023-07-13T15:06:18;21.90;99.90
2463;DHT22;1243;54.298;10.172;2023-07-13T15:08:45;21.90;99.90
2463;DHT22;1243;54.298;10.172;2023-07-13T15:11:12;22.00;99.90
2463;DHT22;1243;54.298;10.172;2023-07-13T15:13:38;22.00;99.90
2463;DHT22;1243;54.298;10.172;2023-07-13T15:16:13;21.60;99.90
2463;DHT22;1243;54.298;10.172;2023-07-13T15:18:40;21.50;99.90
2463;DHT22;1243;54.298;10.172;2023-07-13T15:21:13;21.30;99.90
2463;DHT22;1243;54.298;10.172;2023-07-13T15:23:40;21.60;99.90
2463;DHT22;1243;54.298;10.172;2023-07-13T15:26:12;21.80;99.90
2463;DHT22;1243;54.298;10.172;2023-07-13T15:28:40;21.70;99.90
2463;DHT22;1243;54.298;10.172;2023-07-13T15:31:24;21.60;99.90
2463;DHT22;1243;54.298;10.172;2023-07-13T15:33:51;21.40;99.90
2463;DHT22;1243;54.298;10.172;2023-07-13T15:36:21;21.40;99.90
2463;DHT22;1243;54.298;10.172;2023-07-13T15:38:48;21.70;99.90
2463;DHT22;1243;54.298;10.172;2023-07-13T15:41:21;22.00;99.90
2463;DHT22;1243;54.298;10.172;2023-07-13T15:43:53;22.10;99.90
2463;DHT22;1243;54.298;10.172;2023-07-13T15:46:20;22.30;99.90
2463;DHT22;1243;54.298;10.172;2023-07-13T15:48:48;22.20;99.90
2463;DHT22;1243;54.298;10.172;2023-07-13T15:51:22;22.20;99.90
2463;DHT22;1243;54.298;10.172;2023-07-13T15:53:48;22.10;99.90
2463;DHT22;1243;54.298;10.172;2023-07-13T15:56:23;22.20;99.90
2463;DHT22;1243;54.298;10.172;2023-07-13T15:58:50;22.60;99.90
2463;DHT22;1243;54.298;10.172;2023-07-13T16:01:16;22.70;99.90
2463;DHT22;1243;54.298;10.172;2023-07-13T16:03:42;22.60;99.90
2463;DHT22;1243;54.298;10.172;2023-07-13T16:06:14;22.70;99.90
2463;DHT22;1243;54.298;10.172;2023-07-13T16:08:41;22.60;99.90
2463;DHT22;1243;54.298;10.172;2023-07-13T16:11:22;22.70;99.90
2463;DHT22;1243;54.298;10.172;2023-07-13T16:13:49;23.00;99.90
2463;DHT22;1243;54.298;10.172;2023-07-13T16:16:33;23.10;99.90
2463;DHT22;1243;54.298;10.172;2023-07-13T16:19:03;23.00;99.90
2463;DHT22;1243;54.298;10.172;2023-07-13T16:21:32;22.90;99.90
2463;DHT22;1243;54.298;10.172;2023-07-13T16:24:00;23.00;99.90
2463;DHT22;1243;54.298;10.172;2023-07-13T16:26:37;22.90;99.90
2463;DHT22;1243;54.298;10.172;2023-07-13T16:31:41;22.70;99.90
2463;DHT22;1243;54.298;10.172;2023-07-13T16:34:07;22.60;99.90
2463;DHT22;1243;54.298;10.172;2023-07-13T16:36:35;22.60;99.90
2463;DHT22;1243;54.298;10.172;2023-07-13T16:39:01;22.40;99.90
2463;DHT22;1243;54.298;10.172;2023-07-13T16:41:30;22.30;99.90
2463;DHT22;1243;54.298;10.172;2023-07-13T16:43:55;22.00;99.90
2463;DHT22;1243;54.298;10.172;2023-07-13T16:46:23;21.90;99.90
2463;DHT22;1243;54.298;10.172;2023-07-13T16:48:49;21.60;99.90
2463;DHT22;1243;54.298;10.172;2023-07-13T16:51:15;21.40;99.90
2463;DHT22;1243;54.298;10.172;2023-07-13T16:53:41;21.20;99.90